createdAt,value
2023-04-07T00:00:00.000Z,2.96
2023-04-07T00:15:00.000Z,2.83
2023-04-07T00:30:00.000Z,2.69
2023-04-07T00:45:00.000Z,2.54
2023-04-07T01:00:00.000Z,2.46
2023-04-07T01:15:00.000Z,2.46
2023-04-07T01:30:00.000Z,2.38
2023-04-07T01:45:00.000Z,2.83
2023-04-07T02:00:00.000Z,3.2
2023-04-07T02:15:00.000Z,3.28
2023-04-07T02:30:00.000Z,3.32
2023-04-07T02:45:00.000Z,3.39
2023-04-07T03:00:00.000Z,3.29
2023-04-07T03:15:00.000Z,3.12
2023-04-07T03:30:00.000Z,2.89
2023-04-07T03:45:00.000Z,2.96
2023-04-07T04:00:00.000Z,2.78
2023-04-07T04:15:00.000Z,2.57
2023-04-07T04:30:00.000Z,2.39
2023-04-07T04:45:00.000Z,2.3
2023-04-07T05:00:00.000Z,2.49
2023-04-07T05:15:00.000Z,3.58
2023-04-07T05:30:00.000Z,4.67
2023-04-07T05:45:00.000Z,6.28
2023-04-07T06:00:00.000Z,7.32
2023-04-07T06:15:00.000Z,8.89
2023-04-07T06:30:00.000Z,9.98
2023-04-07T06:45:00.000Z,11.1
2023-04-07T07:00:00.000Z,11.3
2023-04-07T07:15:00.000Z,13.65
2023-04-07T07:30:00.000Z,15.39
2023-04-07T07:45:00.000Z,15.97
2023-04-07T08:00:00.000Z,16.23
2023-04-07T08:15:00.000Z,16.21
2023-04-07T08:30:00.000Z,15.18
2023-04-07T08:45:00.000Z,14.62
2023-04-07T09:00:00.000Z,15.19
2023-04-07T09:15:00.000Z,16.8
2023-04-07T09:30:00.000Z,16.75
2023-04-07T09:45:00.000Z,17.23
2023-04-07T10:00:00.000Z,16.39
2023-04-07T10:15:00.000Z,15.57
2023-04-07T10:30:00.000Z,15.93
2023-04-07T10:45:00.000Z,16.61
2023-04-07T11:00:00.000Z,16.26
2023-04-07T11:15:00.000Z,17.22
2023-04-07T11:30:00.000Z,17.37
2023-04-07T11:45:00.000Z,18.27
2023-04-07T12:00:00.000Z,16.95
2023-04-07T12:15:00.000Z,16.31
2023-04-07T12:30:00.000Z,16.33
2023-04-07T12:45:00.000Z,16.61
2023-04-07T13:00:00.000Z,16.33
2023-04-07T13:15:00.000Z,15.89
2023-04-07T13:30:00.000Z,16.16
2023-04-07T13:45:00.000Z,16.51
2023-04-07T14:00:00.000Z,16.68
2023-04-07T14:15:00.000Z,15.99
2023-04-07T14:30:00.000Z,15.35
2023-04-07T14:45:00.000Z,14.89
2023-04-07T15:00:00.000Z,14.73
2023-04-07T15:15:00.000Z,14.37
2023-04-07T15:30:00.000Z,14.22
2023-04-07T15:45:00.000Z,14.36
2023-04-07T16:00:00.000Z,14.36
2023-04-07T16:15:00.000Z,13.85
2023-04-07T16:30:00.000Z,13.68
2023-04-07T16:45:00.000Z,13.37
2023-04-07T17:00:00.000Z,13.12
2023-04-07T17:15:00.000Z,12.93
2023-04-07T17:30:00.000Z,12.39
2023-04-07T17:45:00.000Z,12.25
2023-04-07T18:00:00.000Z,12.01
2023-04-07T18:15:00.000Z,11.69
2023-04-07T18:30:00.000Z,11.58
2023-04-07T18:45:00.000Z,11.51
2023-04-07T19:00:00.000Z,11.39
2023-04-07T19:15:00.000Z,11.17
2023-04-07T19:30:00.000Z,11.17
2023-04-07T19:45:00.000Z,11
2023-04-07T20:00:00.000Z,10.85
2023-04-07T20:15:00.000Z,10.65
2023-04-07T20:30:00.000Z,10.52
2023-04-07T20:45:00.000Z,10.47
2023-04-07T21:00:00.000Z,10.22
2023-04-07T21:15:00.000Z,10.22
2023-04-07T21:30:00.000Z,10.31
2023-04-07T21:45:00.000Z,10.16
2023-04-07T22:00:00.000Z,10.01
2023-04-07T22:15:00.000Z,9.94
2023-04-07T22:30:00.000Z,9.86
2023-04-07T22:45:00.000Z,9.84
2023-04-07T23:00:00.000Z,9.51
2023-04-07T23:15:00.000Z,9.09
2023-04-07T23:30:00.000Z,8.82
2023-04-07T23:45:00.000Z,8.71
